Time;durP1;ratioP1;P1;durP2;ratioP2;P2;SDS_P1;SDS_P2;PMS_P1;PMS_P2;Temp;Humidity;BMP_temperature;BMP_pressure;BME280_temperature;BME280_humidity;BME280_pressure;Samples;Min_cycle;Max_cycle;Signal;HPM_P1;HPM_P2
2022/05/03 00:02:38;;;;;;;3.58;2.95;;;17.10;54.80;;;;;;5026324;28;20047;-81
2022/05/03 00:05:24;;;;;;;4.15;2.80;;;17.10;54.90;;;;;;4959913;28;20065;-81
2022/05/03 00:08:03;;;;;;;4.50;2.83;;;17.00;54.90;;;;;;4927573;28;20058;-82
2022/05/03 00:10:36;;;;;;;6.82;3.10;;;17.00;55.00;;;;;;4958037;28;20429;-81
2022/05/03 00:13:05;;;;;;;3.10;2.80;;;17.10;55.10;;;;;;4945084;28;20042;-81
2022/05/03 00:15:34;;;;;;;2.55;2.35;;;17.00;55.10;;;;;;4959454;28;20097;-82
2022/05/03 00:18:02;;;;;;;4.13;2.70;;;17.10;55.20;;;;;;4942926;28;20057;-81
2022/05/03 00:20:29;;;;;;;3.63;2.75;;;17.00;55.30;;;;;;4961377;28;20159;-81
2022/05/03 00:22:56;;;;;;;3.05;2.75;;;17.00;55.40;;;;;;4960630;28;20046;-82
2022/05/03 00:25:22;;;;;;;3.10;2.80;;;17.00;55.40;;;;;;4960323;28;20047;-81
2022/05/03 00:27:49;;;;;;;3.20;2.90;;;17.00;55.40;;;;;;4928616;28;20035;-80
2022/05/03 00:30:15;;;;;;;2.72;2.53;;;17.00;55.50;;;;;;4945790;28;20043;-82
2022/05/03 00:32:42;;;;;;;3.05;2.78;;;17.00;55.50;;;;;;4960334;28;20040;-81
2022/05/03 00:35:11;;;;;;;2.92;2.63;;;17.00;55.50;;;;;;4926948;28;20043;-81
2022/05/03 00:37:37;;;;;;;4.22;3.17;;;17.00;55.50;;;;;;4960942;28;20054;-81
2022/05/03 00:40:05;;;;;;;3.80;2.80;;;17.00;55.50;;;;;;4955239;28;20713;-82
2022/05/03 00:42:47;;;;;;;3.03;2.70;;;17.00;55.50;;;;;;4945425;28;20039;-82
2022/05/03 00:45:27;;;;;;;4.68;3.50;;;16.90;55.50;;;;;;4944467;28;20526;-81
2022/05/03 00:47:56;;;;;;;3.72;3.20;;;16.90;55.60;;;;;;4944446;28;20511;-80
2022/05/03 00:50:37;;;;;;;3.63;3.20;;;16.90;55.60;;;;;;4944993;28;20039;-81
2022/05/03 00:53:23;;;;;;;4.03;2.72;;;16.90;55.70;;;;;;4944488;28;20127;-81
2022/05/03 00:56:23;;;;;;;5.32;3.30;;;16.90;55.70;;;;;;4944698;28;20035;-82
2022/05/03 00:59:27;;;;;;;5.03;3.40;;;16.90;55.70;;;;;;4944796;28;20034;-82
2022/05/03 01:02:06;;;;;;;3.70;3.20;;;16.80;55.70;;;;;;4914217;28;20120;-81
2022/05/03 01:05:03;;;;;;;3.55;3.05;;;16.80;55.80;;;;;;4963949;28;20063;-82
2022/05/03 01:07:36;;;;;;;3.63;2.55;;;16.80;55.80;;;;;;4965211;28;20100;-82
2022/05/03 01:10:20;;;;;;;5.80;3.28;;;16.80;55.80;;;;;;4961605;28;20085;-81
2022/05/03 01:13:18;;;;;;;4.97;3.15;;;16.70;55.90;;;;;;4949778;28;20035;-82
2022/05/03 01:15:51;;;;;;;4.80;3.30;;;16.70;56.00;;;;;;4949536;28;20055;-80
2022/05/03 01:18:20;;;;;;;3.47;3.17;;;16.70;56.00;;;;;;4933815;28;20036;-81
2022/05/03 01:20:50;;;;;;;5.20;3.35;;;16.70;56.00;;;;;;4963944;28;21055;-80
2022/05/03 01:23:53;;;;;;;3.88;3.45;;;16.70;56.10;;;;;;4948166;28;20127;-80
2022/05/03 01:26:45;;;;;;;5.07;3.47;;;16.70;56.20;;;;;;4963335;28;20131;-80
2022/05/03 01:29:30;;;;;;;6.53;3.60;;;16.70;56.20;;;;;;4947875;28;20031;-81
2022/05/03 01:32:07;;;;;;;5.17;3.63;;;16.70;56.30;;;;;;4947594;28;20486;-81
2022/05/03 01:34:34;;;;;;;6.47;3.67;;;16.60;56.30;;;;;;4946500;29;20046;-80
2022/05/03 01:37:00;;;;;;;4.53;3.65;;;16.60;57.00;;;;;;4929813;28;20027;-80
2022/05/03 01:39:48;;;;;;;4.00;3.17;;;16.60;56.40;;;;;;4952614;28;20058;-81
2022/05/03 01:42:17;;;;;;;4.95;3.75;;;16.60;56.50;;;;;;4947138;28;20042;-79
2022/05/03 01:45:05;;;;;;;6.07;3.60;;;16.60;56.50;;;;;;4929852;28;20031;-81
2022/05/03 01:47:42;;;;;;;5.65;3.60;;;16.50;56.50;;;;;;4962228;28;20035;-81
2022/05/03 01:50:38;;;;;;;7.35;4.05;;;16.60;56.70;;;;;;4925785;28;20086;-81
2022/05/03 01:53:19;;;;;;;4.20;3.65;;;16.50;56.70;;;;;;4961841;28;20043;-81
2022/05/03 01:56:09;;;;;;;5.97;3.67;;;16.50;56.80;;;;;;4930786;28;20042;-80
2022/05/03 01:58:45;;;;;;;4.28;3.45;;;16.50;56.80;;;;;;4947055;29;21129;-80
2022/05/03 02:01:45;;;;;;;5.25;3.70;;;16.50;56.90;;;;;;4962447;28;20445;-80
2022/05/03 02:04:23;;;;;;;5.43;3.40;;;16.50;57.00;;;;;;4925458;29;20067;-80
2022/05/03 02:07:17;;;;;;;9.32;3.80;;;16.50;57.10;;;;;;4945444;28;20066;-80
2022/05/03 02:09:45;;;;;;;4.25;3.40;;;16.50;57.20;;;;;;4946193;28;20041;-80
2022/05/03 02:12:17;;;;;;;3.72;3.40;;;16.50;57.30;;;;;;4947284;28;20145;-81
2022/05/03 02:15:05;;;;;;;4.38;3.50;;;16.50;57.30;;;;;;4946910;28;20043;-81
2022/05/03 02:17:52;;;;;;;5.25;3.50;;;16.50;57.30;;;;;;4945562;28;20433;-80
2022/05/03 02:20:40;;;;;;;3.88;3.15;;;16.50;57.40;;;;;;4929920;28;20449;-81
2022/05/03 02:23:34;;;;;;;3.75;3.30;;;16.50;57.30;;;;;;4947631;28;20062;-81
2022/05/03 02:26:03;;;;;;;4.65;3.63;;;16.50;57.40;;;;;;4963674;28;20033;-80
2022/05/03 02:28:36;;;;;;;4.68;3.92;;;16.50;57.40;;;;;;4947562;29;20508;-81
2022/05/03 02:31:05;;;;;;;4.60;3.85;;;16.50;57.50;;;;;;4946960;28;20512;-81
2022/05/03 02:33:52;;;;;;;6.38;3.58;;;16.50;57.50;;;;;;4946921;28;20043;-81
2022/05/03 02:36:24;;;;;;;3.50;3.20;;;16.50;57.60;;;;;;4961218;28;20047;-81
2022/05/03 02:38:53;;;;;;;4.03;3.55;;;16.50;57.60;;;;;;4946025;28;20051;-81
2022/05/03 02:41:21;;;;;;;4.47;3.53;;;16.50;57.60;;;;;;4962623;28;20515;-80
2022/05/03 02:43:49;;;;;;;4.82;3.40;;;16.50;57.60;;;;;;4961848;28;20084;-81
2022/05/03 02:46:29;;;;;;;6.35;3.85;;;16.60;57.70;;;;;;4952684;28;20081;-80
2022/05/03 02:49:03;;;;;;;4.10;3.40;;;16.60;57.60;;;;;;4962025;28;20543;-81
2022/05/03 02:51:39;;;;;;;4.13;3.58;;;16.60;57.70;;;;;;4946229;28;20039;-80
2022/05/03 02:54:36;;;;;;;4.03;3.50;;;16.60;57.70;;;;;;4941436;28;20035;-80
2022/05/03 02:57:24;;;;;;;5.68;3.47;;;16.60;57.80;;;;;;4981462;28;20599;-81
2022/05/03 03:03:18;;;;;;;5.93;3.75;;;16.60;58.00;;;;;;4979183;28;20042;-81
2022/05/03 03:06:08;;;;;;;7.70;3.60;;;16.60;58.50;;;;;;4983761;28;20042;-81
2022/05/03 03:08:44;;;;;;;5.32;3.30;;;16.60;58.00;;;;;;4979468;28;20146;-82
2022/05/03 03:11:21;;;;;;;3.75;3.38;;;16.60;58.00;;;;;;4980279;28;20868;-81
2022/05/03 03:13:50;;;;;;;6.78;3.60;;;16.60;58.10;;;;;;4978745;28;20473;-81
2022/05/03 03:16:27;;;;;;;3.60;3.30;;;16.60;58.10;;;;;;4980219;28;20046;-81
2022/05/03 03:18:56;;;;;;;4.13;2.80;;;16.60;58.20;;;;;;4964110;28;20408;-81
2022/05/03 03:21:30;;;;;;;5.00;3.20;;;16.60;58.20;;;;;;4979823;28;20121;-82
2022/05/03 03:23:58;;;;;;;3.53;3.08;;;16.60;58.30;;;;;;4964324;28;20518;-82
2022/05/03 03:26:29;;;;;;;4.07;2.90;;;16.60;58.30;;;;;;4995866;28;20038;-81
2022/05/03 03:28:58;;;;;;;4.32;3.20;;;16.60;58.30;;;;;;4979235;28;20034;-80
2022/05/03 03:31:26;;;;;;;6.18;3.20;;;16.60;58.30;;;;;;4980210;28;20033;-80
2022/05/03 03:33:54;;;;;;;5.00;3.50;;;16.60;58.30;;;;;;4959810;28;20032;-80
2022/05/03 03:36:23;;;;;;;4.82;3.40;;;16.60;58.30;;;;;;4957122;28;20051;-81
2022/05/03 03:38:49;;;;;;;5.35;3.40;;;16.70;58.40;;;;;;4925111;28;20074;-82
2022/05/03 03:41:15;;;;;;;4.45;3.22;;;16.70;58.40;;;;;;4940080;28;20529;-80
2022/05/03 03:43:41;;;;;;;6.20;3.88;;;16.70;58.40;;;;;;4925573;28;20039;-80
2022/05/03 03:46:08;;;;;;;5.30;3.40;;;16.70;58.40;;;;;;4941587;28;20032;-80
2022/05/03 03:48:34;;;;;;;4.88;3.75;;;16.70;58.40;;;;;;4926456;28;20135;-81
2022/05/03 03:51:02;;;;;;;4.50;3.78;;;16.70;58.50;;;;;;4933181;28;20046;-80
2022/05/03 03:53:30;;;;;;;5.07;3.60;;;16.60;58.40;;;;;;4925042;28;20560;-79
2022/05/03 03:55:57;;;;;;;4.32;3.38;;;16.70;58.50;;;;;;4925288;28;20063;-80
2022/05/03 03:58:24;;;;;;;7.10;3.90;;;16.70;58.60;;;;;;4925275;28;20030;-79
2022/05/03 04:00:50;;;;;;;3.75;3.40;;;16.70;58.50;;;;;;4955740;28;20040;-79
2022/05/03 04:03:16;;;;;;;4.63;3.20;;;16.70;58.50;;;;;;4956387;28;20105;-79
2022/05/03 04:05:44;;;;;;;3.10;2.40;;;16.70;58.60;;;;;;4925208;28;20042;-80
2022/05/03 04:08:10;;;;;;;5.13;3.10;;;16.70;58.60;;;;;;4918725;28;20039;-79
2022/05/03 04:10:36;;;;;;;3.72;2.70;;;16.80;58.90;;;;;;4939175;28;20038;-80
2022/05/03 04:13:02;;;;;;;3.17;2.67;;;16.70;58.90;;;;;;4925397;28;20580;-80
2022/05/03 04:15:28;;;;;;;5.63;3.00;;;16.80;58.90;;;;;;4919192;28;20093;-80
2022/05/03 04:17:54;;;;;;;2.90;2.50;;;16.90;58.60;;;;;;4915136;28;20036;-80
2022/05/03 04:20:20;;;;;;;5.72;2.72;;;17.00;58.40;;;;;;4921481;28;20178;-81
2022/05/03 04:22:46;;;;;;;6.32;3.55;;;17.10;58.30;;;;;;4940496;28;20106;-80
2022/05/03 04:25:14;;;;;;;3.70;2.85;;;17.10;58.20;;;;;;5003738;28;20129;-78
2022/05/03 04:27:40;;;;;;;4.15;3.10;;;17.20;58.10;;;;;;4938297;28;20039;-79
2022/05/03 04:30:07;;;;;;;4.32;3.08;;;17.30;58.10;;;;;;4955470;28;20605;-79
2022/05/03 04:32:33;;;;;;;3.50;2.70;;;17.30;57.90;;;;;;4924845;28;20055;-79
2022/05/03 04:35:00;;;;;;;4.78;3.20;;;17.40;57.80;;;;;;4924143;28;20046;-79
2022/05/03 04:37:27;;;;;;;2.88;2.55;;;17.50;57.80;;;;;;4928042;29;20027;-80
2022/05/03 04:39:52;;;;;;;3.80;2.75;;;17.60;57.80;;;;;;4942937;28;20040;-79
2022/05/03 04:42:18;;;;;;;3.13;2.70;;;17.60;57.70;;;;;;4928610;28;20043;-80
2022/05/03 04:44:44;;;;;;;3.10;2.40;;;17.70;57.60;;;;;;4959206;28;20039;-81
2022/05/03 04:47:10;;;;;;;4.22;2.67;;;17.80;57.40;;;;;;4959107;28;20060;-80
2022/05/03 04:49:36;;;;;;;3.63;2.60;;;17.90;57.30;;;;;;4929532;28;20109;-81
2022/05/03 04:52:02;;;;;;;3.75;3.15;;;18.00;57.20;;;;;;4927491;28;20043;-80
2022/05/03 04:54:28;;;;;;;7.22;2.80;;;18.00;57.10;;;;;;4911072;28;21453;-81
2022/05/03 04:57:03;;;;;;;3.42;3.10;;;18.10;57.10;;;;;;4928260;28;20051;-81
2022/05/03 04:59:29;;;;;;;3.60;2.90;;;18.20;57.10;;;;;;4928324;28;20552;-81
2022/05/03 05:01:55;;;;;;;3.13;2.70;;;18.20;57.10;;;;;;4927336;28;20031;-81
2022/05/03 05:04:22;;;;;;;3.08;2.78;;;18.20;57.10;;;;;;4942811;28;20085;-80
2022/05/03 05:06:48;;;;;;;3.15;2.50;;;18.20;57.20;;;;;;4927315;28;20043;-81
2022/05/03 05:09:14;;;;;;;3.13;2.75;;;18.20;57.20;;;;;;4957546;28;20040;-81
2022/05/03 05:11:40;;;;;;;3.33;2.55;;;18.30;57.20;;;;;;4928395;28;20036;-82
2022/05/03 05:14:06;;;;;;;4.45;2.72;;;18.30;57.20;;;;;;4928413;28;20463;-80
2022/05/03 05:16:32;;;;;;;3.47;2.85;;;18.40;57.20;;;;;;4928344;29;20039;-80
2022/05/03 05:18:57;;;;;;;3.30;2.92;;;18.40;57.20;;;;;;4928442;28;20410;-80
2022/05/03 05:21:24;;;;;;;3.67;2.80;;;18.40;57.10;;;;;;4942931;28;20036;-80
2022/05/03 05:23:49;;;;;;;3.13;2.88;;;18.40;57.20;;;;;;4963699;28;20045;-79
2022/05/03 05:26:15;;;;;;;4.18;3.03;;;18.50;57.20;;;;;;4986388;28;20036;-81
2022/05/03 05:28:41;;;;;;;3.78;3.10;;;18.50;57.30;;;;;;4927259;28;20060;-80
2022/05/03 05:31:08;;;;;;;5.00;3.05;;;18.50;57.30;;;;;;4928745;29;20070;-80
2022/05/03 05:33:34;;;;;;;5.30;2.70;;;18.50;57.30;;;;;;4925361;28;20043;-80
2022/05/03 05:36:00;;;;;;;4.18;3.10;;;18.60;57.30;;;;;;4925308;28;20036;-79
2022/05/03 05:38:26;;;;;;;5.78;3.22;;;18.70;57.20;;;;;;4958848;28;20063;-80
2022/05/03 05:40:52;;;;;;;3.60;3.30;;;18.70;57.20;;;;;;4958296;28;20038;-83
2022/05/03 05:43:18;;;;;;;5.13;3.50;;;18.70;57.10;;;;;;4912532;29;20039;-84
2022/05/03 05:45:44;;;;;;;5.75;3.00;;;18.70;57.10;;;;;;4927395;28;20085;-85
2022/05/03 05:48:13;;;;;;;4.80;3.45;;;18.80;57.20;;;;;;4993048;28;20082;-84
2022/05/03 05:50:39;;;;;;;3.80;3.15;;;18.80;57.10;;;;;;4933508;28;20058;-86
2022/05/03 05:55:50;;;;;;;6.18;3.20;;;19.00;57.10;;;;;;4959294;28;20043;-90
2022/05/03 05:58:16;;;;;;;6.20;3.03;;;19.10;57.00;;;;;;4929535;28;20074;-85
2022/05/03 06:00:42;;;;;;;7.10;2.97;;;19.10;56.90;;;;;;4993045;28;20465;-88
2022/05/03 06:03:08;;;;;;;6.40;2.90;;;19.10;56.90;;;;;;4924254;28;20157;-85
2022/05/03 06:05:34;;;;;;;4.93;3.00;;;19.20;56.90;;;;;;4925546;28;20044;-87
2022/05/03 06:08:00;;;;;;;4.47;3.22;;;19.20;56.90;;;;;;4913563;28;20040;-89
2022/05/03 06:10:28;;;;;;;4.38;2.90;;;19.30;57.00;;;;;;4959194;28;20051;-87
2022/05/03 06:12:54;;;;;;;6.55;3.10;;;19.30;56.90;;;;;;4956286;28;20031;-87
2022/05/03 06:15:20;;;;;;;4.22;3.22;;;19.30;57.00;;;;;;4997967;28;20050;-88
2022/05/03 06:17:46;;;;;;;6.78;3.20;;;19.40;57.00;;;;;;5009292;28;20061;-86
2022/05/03 06:20:13;;;;;;;4.75;3.03;;;19.30;56.90;;;;;;4983482;28;20810;-84
2022/05/03 06:22:39;;;;;;;4.07;3.20;;;19.40;56.90;;;;;;5006949;28;20500;-85
2022/05/03 06:25:08;;;;;;;5.38;3.13;;;19.40;57.00;;;;;;5006610;28;20048;-87
2022/05/03 06:27:35;;;;;;;6.25;3.08;;;19.40;56.90;;;;;;4986591;28;20048;-86
2022/05/03 06:30:06;;;;;;;5.97;2.95;;;19.40;56.90;;;;;;5001818;28;20521;-86
2022/05/03 06:32:36;;;;;;;4.97;3.13;;;19.50;57.00;;;;;;5003117;28;20041;-88
2022/05/03 06:35:03;;;;;;;9.02;3.40;;;19.50;56.90;;;;;;5032509;28;20069;-86
2022/05/03 06:37:29;;;;;;;7.90;4.03;;;19.40;56.80;;;;;;5006846;28;20034;-85
2022/05/03 06:39:55;;;;;;;6.03;4.13;;;19.50;56.60;;;;;;5011614;28;20030;-87
2022/05/03 06:42:21;;;;;;;7.45;4.40;;;19.50;56.20;;;;;;5009638;28;20138;-84
2022/05/03 06:44:47;;;;;;;8.30;4.30;;;19.60;55.80;;;;;;5026900;28;20030;-85
2022/05/03 06:47:13;;;;;;;9.30;3.90;;;19.60;55.40;;;;;;5007902;28;20034;-81
2022/05/03 06:49:39;;;;;;;4.45;3.67;;;19.70;55.20;;;;;;5005979;28;20038;-82
2022/05/03 06:52:05;;;;;;;10.15;4.50;;;19.70;54.90;;;;;;5005870;28;20108;-79
2022/05/03 06:54:31;;;;;;;8.48;4.28;;;19.70;54.60;;;;;;5004357;28;20034;-79
2022/05/03 06:56:57;;;;;;;7.70;3.95;;;19.80;54.60;;;;;;5038737;28;20041;-79
2022/05/03 06:59:23;;;;;;;9.63;4.32;;;19.80;54.50;;;;;;5005283;28;20042;-79
2022/05/03 07:01:49;;;;;;;9.25;4.38;;;19.80;54.30;;;;;;5006720;28;20115;-78
2022/05/03 07:04:15;;;;;;;7.60;4.07;;;19.80;54.00;;;;;;5006515;28;20053;-80
2022/05/03 07:06:41;;;;;;;8.05;3.60;;;19.80;54.20;;;;;;5006386;28;20520;-80
2022/05/03 07:09:07;;;;;;;8.50;3.45;;;19.80;54.60;;;;;;5013643;28;20428;-80
2022/05/03 07:11:34;;;;;;;5.00;3.90;;;19.80;54.20;;;;;;5037351;28;20041;-80
2022/05/03 07:14:00;;;;;;;5.75;3.50;;;19.80;54.10;;;;;;4980281;28;20068;-80
2022/05/03 07:16:26;;;;;;;5.70;3.90;;;19.90;54.20;;;;;;4922720;28;20098;-81
2022/05/03 07:24:21;;;;;;;3.63;3.30;;;19.90;53.70;;;;;;4926437;28;20040;-81
2022/05/03 07:26:47;;;;;;;7.35;3.55;;;19.90;53.60;;;;;;4924460;28;20040;-79
2022/05/03 07:29:12;;;;;;;8.55;3.97;;;19.90;53.80;;;;;;4924243;28;21002;-76
2022/05/03 07:31:41;;;;;;;10.82;4.80;;;19.90;54.00;;;;;;4925900;29;20062;-78
2022/05/03 07:34:08;;;;;;;8.30;5.20;;;19.90;53.80;;;;;;4925255;28;20398;-79
2022/05/03 07:36:35;;;;;;;8.93;5.88;;;19.80;53.70;;;;;;4923911;28;20465;-78
2022/05/03 07:39:01;;;;;;;10.23;5.68;;;19.80;53.70;;;;;;4931032;28;20036;-77
2022/05/03 07:41:28;;;;;;;6.50;5.25;;;19.70;53.90;;;;;;4924527;28;20474;-77
2022/05/03 07:43:54;;;;;;;7.10;4.88;;;19.80;53.70;;;;;;4925489;28;20494;-77
2022/05/03 07:46:19;;;;;;;10.55;4.78;;;19.70;53.80;;;;;;4926718;29;20044;-78
2022/05/03 07:48:45;;;;;;;5.28;4.40;;;19.60;53.90;;;;;;4955970;28;20042;-77
2022/05/03 07:51:12;;;;;;;6.28;4.57;;;19.60;53.90;;;;;;4924710;28;20032;-76
2022/05/03 07:53:39;;;;;;;7.75;4.20;;;19.70;53.70;;;;;;5004259;28;20472;-77
2022/05/03 07:56:06;;;;;;;6.13;3.55;;;19.70;53.30;;;;;;4920034;28;20046;-76
2022/05/03 07:58:32;;;;;;;6.80;4.65;;;19.70;53.10;;;;;;4925165;29;20498;-80
2022/05/03 08:00:58;;;;;;;3.92;3.58;;;19.70;53.30;;;;;;4923774;28;20570;-78
2022/05/03 08:03:24;;;;;;;9.73;4.10;;;19.50;53.50;;;;;;4924981;28;20039;-78
2022/05/03 08:05:50;;;;;;;7.55;3.92;;;19.50;53.50;;;;;;4924640;28;20554;-78
2022/05/03 08:08:16;;;;;;;6.30;3.70;;;19.50;53.50;;;;;;4923671;28;20094;-77
2022/05/03 08:10:45;;;;;;;4.82;3.60;;;19.50;54.00;;;;;;4924343;28;20044;-76
2022/05/03 08:13:11;;;;;;;7.18;4.13;;;19.50;53.90;;;;;;4924183;28;20071;-78
2022/05/03 08:15:38;;;;;;;5.50;3.90;;;19.50;53.70;;;;;;4937202;28;20146;-77
2022/05/03 08:18:05;;;;;;;7.45;3.50;;;19.50;53.50;;;;;;4926270;28;20126;-77
2022/05/03 08:20:31;;;;;;;4.53;3.10;;;19.50;53.00;;;;;;4945516;28;20665;-76
2022/05/03 08:22:57;;;;;;;7.03;3.15;;;19.50;52.90;;;;;;4926845;28;20436;-76
2022/05/03 08:25:23;;;;;;;7.00;3.60;;;19.40;53.00;;;;;;4947846;28;20096;-76
2022/05/03 08:27:49;;;;;;;3.90;3.60;;;19.40;52.60;;;;;;4929191;28;20041;-78
2022/05/03 08:30:15;;;;;;;3.80;2.92;;;19.30;52.50;;;;;;4994221;28;20043;-78
2022/05/03 08:32:41;;;;;;;5.72;3.10;;;19.30;52.50;;;;;;5019379;28;20042;-78
2022/05/03 08:35:07;;;;;;;3.60;2.72;;;19.30;52.30;;;;;;5006717;28;20040;-78
2022/05/03 08:43:08;;;;;;;7.95;3.13;;;19.40;53.40;;;;;;4927111;28;20087;-79
2022/05/03 08:45:34;;;;;;;8.40;3.65;;;19.40;54.20;;;;;;4936130;28;20503;-78
2022/05/03 08:48:01;;;;;;;5.28;2.80;;;19.50;53.90;;;;;;5006761;28;20036;-79
2022/05/03 08:50:29;;;;;;;5.32;3.35;;;19.40;52.60;;;;;;4974515;28;20569;-77
2022/05/03 08:52:59;;;;;;;6.38;3.00;;;19.40;52.00;;;;;;4933114;28;20123;-77
2022/05/03 08:55:28;;;;;;;8.30;3.20;;;19.40;50.20;;;;;;4930956;28;20127;-76
2022/05/03 08:57:57;;;;;;;5.95;2.90;;;19.30;49.80;;;;;;4989411;28;20443;-77
2022/05/03 09:00:25;;;;;;;6.70;2.50;;;19.30;49.50;;;;;;5007336;28;20039;-77
2022/05/03 09:02:54;;;;;;;7.88;2.80;;;19.30;49.40;;;;;;5021859;28;20036;-77
2022/05/03 09:05:21;;;;;;;7.32;2.88;;;19.30;50.00;;;;;;4940661;28;20526;-77
2022/05/03 09:07:56;;;;;;;21.58;3.75;;;19.40;50.10;;;;;;5027161;28;20122;-79
2022/05/03 09:10:25;;;;;;;14.30;3.53;;;19.30;49.20;;;;;;4933994;28;20039;-77
2022/05/03 09:12:55;;;;;;;13.60;2.90;;;19.30;48.30;;;;;;5023674;28;20039;-78
2022/05/03 09:15:29;;;;;;;12.52;2.83;;;19.30;48.00;;;;;;4927070;28;20442;-78
2022/05/03 09:17:55;;;;;;;15.00;2.90;;;19.30;48.00;;;;;;4927606;28;20135;-78
2022/05/03 09:26:11;;;;;;;19.63;3.17;;;19.30;48.10;;;;;;5028145;28;20141;-77
2022/05/03 09:28:50;;;;;;;9.20;2.78;;;19.30;47.60;;;;;;5028795;28;20038;-77
2022/05/03 09:31:36;;;;;;;7.80;2.25;;;19.30;47.30;;;;;;5042186;28;20049;-76
2022/05/03 09:34:18;;;;;;;9.07;2.50;;;19.20;46.50;;;;;;4950562;28;20478;-78
2022/05/03 09:36:49;;;;;;;6.32;2.40;;;19.20;47.90;;;;;;4931435;28;20126;-83
2022/05/03 09:39:23;;;;;;;9.48;2.40;;;19.30;48.50;;;;;;4931190;28;20105;-78
2022/05/03 09:42:09;;;;;;;10.25;2.60;;;19.30;47.70;;;;;;4984377;28;20047;-77
2022/05/03 09:44:57;;;;;;;5.65;2.70;;;19.30;47.40;;;;;;4929930;28;20453;-77
2022/05/03 09:47:25;;;;;;;2.65;2.40;;;19.30;47.00;;;;;;5027366;28;20036;-77
2022/05/03 09:49:52;;;;;;;5.68;2.72;;;19.20;47.30;;;;;;4929885;28;20600;-77
2022/05/03 09:52:35;;;;;;;6.15;3.55;;;19.30;46.10;;;;;;4932330;28;20032;-77
2022/05/03 09:55:07;;;;;;;3.00;2.70;;;19.30;46.40;;;;;;4998020;28;20873;-77
2022/05/03 09:57:35;;;;;;;3.80;2.38;;;19.20;46.70;;;;;;5030903;28;20074;-77
2022/05/03 10:00:04;;;;;;;6.60;2.60;;;19.20;46.00;;;;;;4940074;28;20040;-78
2022/05/03 10:02:42;;;;;;;5.03;2.63;;;19.20;45.90;;;;;;4929967;28;20123;-78
2022/05/03 10:05:11;;;;;;;7.15;2.80;;;19.30;46.00;;;;;;4992065;28;20044;-78
2022/05/03 10:07:40;;;;;;;4.88;2.55;;;19.20;45.50;;;;;;5008037;28;20058;-81
2022/05/03 10:10:08;;;;;;;5.07;2.28;;;19.30;46.30;;;;;;4937982;28;20042;-78
2022/05/03 10:12:37;;;;;;;3.83;2.13;;;19.30;45.50;;;;;;4940069;28;20536;-78
2022/05/03 10:15:05;;;;;;;7.13;2.53;;;19.30;46.00;;;;;;4930549;28;20052;-82
2022/05/03 10:20:42;;;;;;;4.43;2.53;;;19.30;46.00;;;;;;4928520;28;20514;-79
2022/05/03 10:23:19;;;;;;;6.20;2.78;;;19.30;45.90;;;;;;4989288;28;20036;-78
2022/05/03 10:25:45;;;;;;;4.65;2.10;;;19.20;45.50;;;;;;4929489;28;20032;-78
2022/05/03 10:28:11;;;;;;;3.55;2.20;;;19.30;45.90;;;;;;4930196;28;20639;-78
2022/05/03 10:30:40;;;;;;;6.88;2.63;;;19.30;45.60;;;;;;4928639;28;20062;-77
2022/05/03 10:33:21;;;;;;;6.10;2.38;;;19.30;45.40;;;;;;4928914;28;20032;-78
2022/05/03 10:35:48;;;;;;;4.20;2.08;;;19.30;45.40;;;;;;4928606;28;20413;-78
2022/05/03 10:38:15;;;;;;;5.32;2.50;;;19.30;45.90;;;;;;5025303;28;20510;-78
2022/05/03 10:40:43;;;;;;;4.25;2.40;;;19.40;46.00;;;;;;4929262;28;20085;-77
2022/05/03 10:43:10;;;;;;;6.05;2.47;;;19.40;46.30;;;;;;4943586;28;20585;-78
2022/05/03 10:45:50;;;;;;;2.45;1.88;;;19.40;46.00;;;;;;4943930;28;20131;-77
2022/05/03 10:48:43;;;;;;;4.82;2.28;;;19.40;45.00;;;;;;4976813;28;20511;-78
2022/05/03 10:51:13;;;;;;;5.28;2.00;;;19.40;45.10;;;;;;4964030;28;20469;-78
2022/05/03 10:53:43;;;;;;;4.95;1.70;;;19.30;44.60;;;;;;4925944;28;20127;-78
2022/05/03 10:56:18;;;;;;;4.88;1.73;;;19.30;44.40;;;;;;4924752;28;20071;-78
2022/05/03 10:59:08;;;;;;;5.35;2.10;;;19.30;44.70;;;;;;4925411;28;20032;-78
2022/05/03 11:01:53;;;;;;;10.80;2.20;;;19.30;44.40;;;;;;4957948;28;20036;-80
2022/05/03 11:04:20;;;;;;;7.70;2.20;;;19.40;44.80;;;;;;4926499;28;20060;-81
2022/05/03 11:06:49;;;;;;;5.40;2.45;;;19.40;45.40;;;;;;4938270;28;20040;-81
2022/05/03 11:09:31;;;;;;;5.20;2.38;;;19.40;45.70;;;;;;4925669;28;20050;-81
2022/05/03 11:12:03;;;;;;;5.45;2.33;;;19.40;46.10;;;;;;4925302;28;20046;-81
2022/05/03 11:14:29;;;;;;;4.75;2.00;;;19.40;45.90;;;;;;4923854;28;20430;-81
2022/05/03 11:17:14;;;;;;;4.72;2.33;;;19.40;45.30;;;;;;4941361;28;20047;-81
2022/05/03 11:19:43;;;;;;;3.88;2.45;;;19.40;45.70;;;;;;4927152;29;20473;-82
2022/05/03 11:22:14;;;;;;;5.30;2.17;;;19.40;45.30;;;;;;4926064;28;20048;-81
2022/05/03 11:24:49;;;;;;;7.32;2.20;;;19.40;45.60;;;;;;4940220;28;20071;-82
2022/05/03 11:27:16;;;;;;;6.10;2.20;;;19.40;45.80;;;;;;4925588;28;20473;-82
2022/05/03 11:29:46;;;;;;;4.13;1.80;;;19.40;45.00;;;;;;4920719;28;20036;-82
2022/05/03 11:32:13;;;;;;;5.65;2.38;;;19.40;44.60;;;;;;4957342;28;20499;-82
2022/05/03 11:34:39;;;;;;;6.30;2.05;;;19.40;44.20;;;;;;4925450;28;20438;-83
2022/05/03 11:37:07;;;;;;;3.97;2.00;;;19.40;44.50;;;;;;5025031;28;20041;-81
2022/05/03 11:39:36;;;;;;;7.22;2.17;;;19.40;45.20;;;;;;5026497;28;20033;-81
2022/05/03 11:42:03;;;;;;;5.32;2.05;;;19.40;45.00;;;;;;4961448;28;20725;-81
2022/05/03 11:44:29;;;;;;;4.32;2.03;;;19.40;44.90;;;;;;4973133;28;20116;-82
2022/05/03 11:46:55;;;;;;;3.60;2.17;;;19.40;44.30;;;;;;5015972;28;20120;-83
2022/05/03 11:49:22;;;;;;;7.30;2.20;;;19.40;44.60;;;;;;4941418;29;20585;-79
2022/05/03 11:57:41;;;;;;;6.57;2.40;;;19.50;47.60;;;;;;5024449;28;20041;-80
2022/05/03 12:00:12;;;;;;;5.40;2.20;;;19.50;48.30;;;;;;5026031;28;20128;-77
2022/05/03 12:02:42;;;;;;;4.60;2.55;;;19.60;48.20;;;;;;5026336;28;20061;-78
2022/05/03 12:05:11;;;;;;;10.90;2.85;;;19.60;48.40;;;;;;5027488;28;20120;-80
2022/05/03 12:07:43;;;;;;;5.97;2.42;;;19.70;48.30;;;;;;5004461;28;20116;-80
2022/05/03 12:10:29;;;;;;;4.00;1.88;;;19.70;46.00;;;;;;4929571;28;20043;-80
2022/05/03 12:13:16;;;;;;;4.88;2.05;;;19.70;44.30;;;;;;5002055;28;20091;-80
2022/05/03 12:15:47;;;;;;;6.07;1.55;;;19.70;43.80;;;;;;5007369;28;20072;-78
2022/05/03 12:18:19;;;;;;;5.40;2.33;;;19.60;44.60;;;;;;5008281;28;20037;-79
2022/05/03 12:20:51;;;;;;;6.10;1.95;;;19.60;44.20;;;;;;5024287;28;20033;-80
2022/05/03 12:23:18;;;;;;;2.97;2.17;;;19.60;44.90;;;;;;5025494;28;20168;-80
2022/05/03 12:25:47;;;;;;;6.63;2.92;;;19.60;43.90;;;;;;5025374;28;20118;-80
2022/05/03 12:28:14;;;;;;;8.95;3.20;;;19.60;43.50;;;;;;5020720;28;20415;-80
2022/05/03 12:30:40;;;;;;;9.45;2.83;;;19.60;43.50;;;;;;4991542;28;20042;-81
2022/05/03 12:33:08;;;;;;;7.32;2.30;;;19.50;42.90;;;;;;4990248;28;20039;-80
2022/05/03 12:35:42;;;;;;;7.13;2.28;;;19.50;42.80;;;;;;4927985;28;20043;-81
2022/05/03 12:38:12;;;;;;;7.63;1.95;;;19.50;42.40;;;;;;4927882;28;20040;-81
2022/05/03 12:40:52;;;;;;;5.43;2.15;;;19.50;42.50;;;;;;4975092;28;20181;-80
2022/05/03 12:43:21;;;;;;;5.13;1.90;;;19.50;42.80;;;;;;5007877;28;20043;-80
2022/05/03 12:46:02;;;;;;;7.55;2.03;;;19.50;43.00;;;;;;5023850;28;20066;-79
2022/05/03 12:48:31;;;;;;;9.48;2.70;;;19.50;42.70;;;;;;5023383;28;20032;-77
2022/05/03 12:50:58;;;;;;;7.65;2.50;;;19.50;43.00;;;;;;4975152;28;20089;-78
2022/05/03 12:53:35;;;;;;;7.47;2.20;;;19.50;42.40;;;;;;4927380;28;20042;-83
2022/05/03 12:58:47;;;;;;;;;;;19.50;42.30;;;;;;4930467;28;20072;-80
2022/05/03 13:01:14;;;;;;;7.65;2.60;;;19.40;41.60;;;;;;5029009;28;19915;-80
2022/05/03 13:03:46;;;;;;;4.95;2.50;;;19.40;41.60;;;;;;5021310;28;20084;-83
2022/05/03 13:06:12;;;;;;;7.22;2.22;;;19.40;41.30;;;;;;4978094;28;20490;-83
2022/05/03 13:08:38;;;;;;;8.57;2.33;;;19.40;41.20;;;;;;5022100;28;20063;-82
2022/05/03 13:11:07;;;;;;;5.28;2.17;;;19.50;41.60;;;;;;4993087;28;20541;-82
2022/05/03 13:13:33;;;;;;;5.43;2.05;;;19.50;41.40;;;;;;4930492;28;20040;-82
2022/05/03 13:15:59;;;;;;;5.68;2.30;;;19.40;41.30;;;;;;4985103;28;20048;-82
2022/05/03 13:18:25;;;;;;;6.00;2.00;;;19.50;41.30;;;;;;4970471;28;20842;-82
2022/05/03 13:20:51;;;;;;;6.32;2.00;;;19.40;41.40;;;;;;5004561;28;20037;-82
2022/05/03 13:23:17;;;;;;;6.18;2.00;;;19.40;41.60;;;;;;5012248;28;20043;-83
2022/05/03 13:25:44;;;;;;;6.10;2.38;;;19.40;42.10;;;;;;4927792;28;20036;-80
2022/05/03 13:28:10;;;;;;;6.75;2.60;;;19.40;41.60;;;;;;5027584;28;20041;-81
2022/05/03 13:30:36;;;;;;;5.80;2.15;;;19.40;42.10;;;;;;5010980;28;20116;-81
2022/05/03 13:33:02;;;;;;;5.18;2.20;;;19.50;42.40;;;;;;4991610;28;20147;-83
2022/05/03 13:40:57;;;;;;;5.88;2.00;;;19.50;42.00;;;;;;5028861;28;20549;-82
2022/05/03 13:43:25;;;;;;;3.75;2.13;;;19.40;41.80;;;;;;5029090;28;20033;-81
2022/05/03 13:45:51;;;;;;;4.30;2.20;;;19.40;41.70;;;;;;5028439;28;20041;-82